createdAt,value
2022-09-20T00:00:50.369Z,10.22
2022-09-20T00:06:14.838Z,10.19
2022-09-20T00:11:37.050Z,10.18
2022-09-20T00:16:58.868Z,10.11
2022-09-20T00:22:20.729Z,10.02
2022-09-20T00:27:42.788Z,9.96
2022-09-20T00:33:04.890Z,9.94
2022-09-20T00:38:26.702Z,9.93
2022-09-20T00:43:48.478Z,9.86
2022-09-20T00:49:25.544Z,9.73
2022-09-20T00:54:48.123Z,9.77
2022-09-20T01:00:11.864Z,9.77
2022-09-20T01:05:35.737Z,9.71
2022-09-20T01:10:57.564Z,9.71
2022-09-20T01:16:20.946Z,9.67
2022-09-20T01:21:43.240Z,9.55
2022-09-20T01:27:17.128Z,9.55
2022-09-20T01:33:17.457Z,9.54
2022-09-20T01:38:56.178Z,9.52
2022-09-20T01:44:45.637Z,9.41
2022-09-20T01:50:34.214Z,9.30
2022-09-20T01:56:17.454Z,9.36
2022-09-20T02:01:45.218Z,9.34
2022-09-20T02:07:51.458Z,9.29
2022-09-20T02:13:47.643Z,9.34
2022-09-20T02:19:40.536Z,9.33
2022-09-20T02:25:22.575Z,9.29
2022-09-20T02:30:56.779Z,9.30
2022-09-20T02:36:37.053Z,9.32
2022-09-20T02:42:20.637Z,9.42
2022-09-20T02:47:47.351Z,9.63
2022-09-20T02:53:09.012Z,9.33
2022-09-20T02:58:48.550Z,9.66
2022-09-20T03:04:40.058Z,9.70
2022-09-20T03:10:01.776Z,9.80
2022-09-20T03:15:57.311Z,9.84
2022-09-20T03:21:34.720Z,9.87
2022-09-20T03:27:09.619Z,9.94
2022-09-20T03:32:48.802Z,9.99
2022-09-20T03:38:25.501Z,9.93
2022-09-20T03:43:56.421Z,10.01
2022-09-20T03:49:33.559Z,9.91
2022-09-20T03:55:07.405Z,10.09
2022-09-20T04:01:00.146Z,10.05
2022-09-20T04:06:40.765Z,10.03
2022-09-20T04:12:22.471Z,10.14
2022-09-20T04:18:12.135Z,10.09
2022-09-20T04:24:06.607Z,10.28
2022-09-20T04:29:44.425Z,10.33
2022-09-20T04:35:43.802Z,10.23
2022-09-20T04:41:51.132Z,10.18
2022-09-20T04:47:21.882Z,10.38
2022-09-20T04:52:52.671Z,10.46
2022-09-20T04:58:39.709Z,10.41
2022-09-20T05:04:30.604Z,10.58
2022-09-20T05:10:01.871Z,10.61
2022-09-20T05:15:41.809Z,10.68
2022-09-20T05:21:15.349Z,10.72
2022-09-20T05:26:43.108Z,10.79
2022-09-20T05:32:39.882Z,10.82
2022-09-20T05:38:20.266Z,10.97
2022-09-20T05:44:06.387Z,11.10
2022-09-20T05:50:04.238Z,10.98
2022-09-20T05:55:50.769Z,11.10
2022-09-20T06:01:24.784Z,10.68
2022-09-20T06:06:49.560Z,11.24
2022-09-20T06:12:48.787Z,11.38
2022-09-20T06:18:16.292Z,11.72
2022-09-20T06:23:38.116Z,11.76
2022-09-20T06:29:05.482Z,11.89
2022-09-20T06:34:28.632Z,12.09
2022-09-20T06:40:03.006Z,12.19
2022-09-20T06:45:24.880Z,12.43
2022-09-20T06:50:46.707Z,12.85
2022-09-20T06:56:14.391Z,12.94
2022-09-20T07:01:36.715Z,12.83
2022-09-20T07:07:07.339Z,12.84
2022-09-20T07:12:31.004Z,13.18
2022-09-20T07:17:52.846Z,13.37
2022-09-20T07:23:14.918Z,13.48
2022-09-20T07:28:36.716Z,13.61
2022-09-20T07:33:58.658Z,14.04
2022-09-20T07:39:20.446Z,14.30
2022-09-20T07:44:42.256Z,14.41
2022-09-20T07:50:04.784Z,14.01
2022-09-20T07:55:26.592Z,14.06
2022-09-20T08:00:56.685Z,14.11
2022-09-20T08:06:18.737Z,14.89
2022-09-20T08:11:42.057Z,15.42
2022-09-20T08:17:03.844Z,15.31
2022-09-20T08:22:25.656Z,15.18
2022-09-20T08:27:54.005Z,15.24
2022-09-20T08:33:15.792Z,15.24
2022-09-20T08:44:36.562Z,15.20
2022-09-20T08:50:00.857Z,14.98
2022-09-20T08:55:27.928Z,15.34
2022-09-20T09:00:50.179Z,15.38
2022-09-20T09:06:18.405Z,15.25
2022-09-20T09:11:45.742Z,15.18
2022-09-20T09:17:10.458Z,15.06
2022-09-20T09:22:35.252Z,15.12
2022-09-20T09:28:03.154Z,15.27
2022-09-20T09:33:29.084Z,15.31
2022-09-20T09:39:11.430Z,15.04
2022-09-20T09:44:33.350Z,14.68
2022-09-20T09:50:01.886Z,14.60
2022-09-20T09:55:37.826Z,15.11
2022-09-20T10:01:03.041Z,16.41
2022-09-20T10:06:57.972Z,17.56
2022-09-20T10:12:34.677Z,17.85
2022-09-20T10:18:28.843Z,18.25
2022-09-20T10:24:17.968Z,17.40
2022-09-20T10:30:04.859Z,17.06
2022-09-20T10:35:36.771Z,17.37
2022-09-20T10:41:16.307Z,17.80
2022-09-20T10:46:44.081Z,17.64
2022-09-20T10:52:13.532Z,18.01
2022-09-20T10:57:46.736Z,18.33
2022-09-20T11:03:17.761Z,18.54
2022-09-20T11:08:40.842Z,18.37
2022-09-20T11:14:21.363Z,18.27
2022-09-20T11:20:02.199Z,18.82
2022-09-20T11:25:38.509Z,18.75
2022-09-20T11:31:20.288Z,19.11
2022-09-20T11:36:49.151Z,18.96
2022-09-20T11:42:16.772Z,18.75
2022-09-20T11:47:56.022Z,17.96
2022-09-20T11:53:26.836Z,18.07
2022-09-20T11:58:54.486Z,17.94
2022-09-20T12:04:39.003Z,17.73
2022-09-20T12:10:05.327Z,18.02
2022-09-20T12:15:31.455Z,18.30
2022-09-20T12:20:56.353Z,18.83
2022-09-20T12:26:21.173Z,18.95
2022-09-20T12:31:51.170Z,19.00
2022-09-20T12:37:12.920Z,19.05
2022-09-20T12:42:35.444Z,18.73
2022-09-20T12:47:57.398Z,18.46
2022-09-20T12:53:19.444Z,18.04
2022-09-20T12:58:52.390Z,18.00
2022-09-20T13:04:39.182Z,18.03
2022-09-20T13:10:20.906Z,17.91
2022-09-20T13:15:48.933Z,17.74
2022-09-20T13:21:10.836Z,17.65
2022-09-20T13:26:41.122Z,17.05
2022-09-20T13:32:31.535Z,17.00
2022-09-20T13:37:53.260Z,17.08
2022-09-20T13:43:29.549Z,16.63
2022-09-20T13:49:12.464Z,15.31
2022-09-20T13:54:34.228Z,14.57
2022-09-20T13:59:56.790Z,14.27
2022-09-20T14:05:19.997Z,14.19
2022-09-20T14:10:41.810Z,14.15
2022-09-20T14:16:04.044Z,14.35
2022-09-20T14:21:27.932Z,14.43
2022-09-20T14:27:19.288Z,14.57
2022-09-20T14:32:50.675Z,14.70
2022-09-20T14:38:15.134Z,14.88
2022-09-20T14:43:37.082Z,15.17
2022-09-20T14:49:23.848Z,15.27
2022-09-20T14:55:00.044Z,14.79
2022-09-20T15:00:21.892Z,14.11
2022-09-20T15:05:49.288Z,13.61
2022-09-20T15:11:18.639Z,13.26
2022-09-20T15:16:40.537Z,12.75
2022-09-20T15:22:02.455Z,12.65
2022-09-20T15:27:28.222Z,12.81
2022-09-20T15:32:50.296Z,12.74
2022-09-20T15:38:13.309Z,13.01
2022-09-20T15:43:35.090Z,12.83
2022-09-20T15:48:59.814Z,12.72
2022-09-20T15:54:21.582Z,12.53
2022-09-20T15:59:43.518Z,12.62
2022-09-20T16:05:05.568Z,12.58
2022-09-20T16:10:27.342Z,12.53
2022-09-20T16:16:00.124Z,12.27
2022-09-20T16:21:22.570Z,12.36
2022-09-20T16:26:44.783Z,12.46
2022-09-20T16:32:06.578Z,12.45
2022-09-20T16:37:28.683Z,12.47
2022-09-20T16:42:52.463Z,12.45
2022-09-20T16:48:14.626Z,12.51
2022-09-20T16:53:36.731Z,12.55
2022-09-20T16:58:58.709Z,12.46
2022-09-20T17:04:21.228Z,12.46
2022-09-20T17:09:43.442Z,12.48
2022-09-20T17:15:06.069Z,12.30
2022-09-20T17:20:28.373Z,12.26
2022-09-20T17:26:01.945Z,12.07
2022-09-20T17:31:29.589Z,11.85
2022-09-20T17:36:52.578Z,11.85
2022-09-20T17:42:14.375Z,11.72
2022-09-20T17:47:36.331Z,11.74
2022-09-20T17:52:58.103Z,11.82
2022-09-20T17:58:19.907Z,11.72
2022-09-20T18:03:44.413Z,11.70
2022-09-20T18:09:10.721Z,11.66
2022-09-20T18:14:32.568Z,11.47
2022-09-20T18:19:54.399Z,11.45
2022-09-20T18:25:16.443Z,11.42
2022-09-20T18:30:38.446Z,11.45
2022-09-20T18:36:02.527Z,11.47
2022-09-20T18:41:27.091Z,11.45
2022-09-20T18:46:49.775Z,11.57
2022-09-20T18:52:11.873Z,11.60
2022-09-20T18:57:35.059Z,11.53
2022-09-20T19:03:11.686Z,11.59
2022-09-20T19:08:38.434Z,11.15
2022-09-20T19:14:10.310Z,11.39
2022-09-20T19:19:53.735Z,11.39
2022-09-20T19:25:25.955Z,11.44
2022-09-20T19:30:47.959Z,11.54
2022-09-20T19:36:10.272Z,11.58
2022-09-20T19:42:04.673Z,11.60
2022-09-20T19:47:44.483Z,11.70
2022-09-20T19:53:06.933Z,11.70
2022-09-20T19:58:28.951Z,11.72
2022-09-20T20:03:52.221Z,11.71
2022-09-20T20:09:45.648Z,11.67
2022-09-20T20:15:39.151Z,11.64
2022-09-20T20:21:01.010Z,11.52
2022-09-20T20:26:26.410Z,11.40
2022-09-20T20:31:48.216Z,11.30
2022-09-20T20:37:10.172Z,11.15
2022-09-20T20:42:32.152Z,11.10
2022-09-20T20:47:57.854Z,10.98
2022-09-20T20:53:19.774Z,10.94
2022-09-20T20:58:43.179Z,10.87
2022-09-20T21:04:05.542Z,10.76
2022-09-20T21:09:27.347Z,10.66
2022-09-20T21:14:49.140Z,10.65
2022-09-20T21:20:10.928Z,10.60
2022-09-20T21:25:32.887Z,10.57
2022-09-20T21:31:00.472Z,10.57
2022-09-20T21:36:28.966Z,10.54
2022-09-20T21:41:50.796Z,10.53
2022-09-20T21:47:12.605Z,10.56
2022-09-20T21:52:34.382Z,10.54
2022-09-20T21:57:56.149Z,10.39
2022-09-20T22:03:17.956Z,10.35
2022-09-20T22:08:48.626Z,10.26
2022-09-20T22:14:11.764Z,10.22
2022-09-20T22:19:33.534Z,10.15
2022-09-20T22:24:55.323Z,10.08
2022-09-20T22:30:17.230Z,10.01
2022-09-20T22:35:44.487Z,10.00
2022-09-20T22:41:06.572Z,9.91
2022-09-20T22:46:29.962Z,9.88
2022-09-20T22:51:51.769Z,9.85
2022-09-20T22:57:13.694Z,9.79
2022-09-20T23:02:35.559Z,9.88
2022-09-20T23:07:57.326Z,9.86
2022-09-20T23:13:19.147Z,9.85
2022-09-20T23:18:41.834Z,9.87
2022-09-20T23:24:05.729Z,9.97
2022-09-20T23:29:27.762Z,9.93
2022-09-20T23:34:49.516Z,9.97
2022-09-20T23:40:11.506Z,9.95
2022-09-20T23:45:33.337Z,9.96
2022-09-20T23:50:55.374Z,10.09
2022-09-20T23:56:17.706Z,10.09
